Time;durP1;ratioP1;P1;durP2;ratioP2;P2;SDS_P1;SDS_P2;PMS_P1;PMS_P2;Temp;Humidity;BMP_temperature;BMP_pressure;BME280_temperature;BME280_humidity;BME280_pressure;Samples;Min_cycle;Max_cycle;Signal;HPM_P1;HPM_P2
2021/08/22 00:00:09;;;;;;;;;;;;;;;21.92;82.24;101257.00;1588639;38;153788;-81
2021/08/22 00:01:41;;;;;;;;;;;;;;;21.92;82.20;101248.56;1592266;38;153226;-82
2021/08/22 00:03:13;;;;;;;;;;;;;;;21.92;82.30;101246.59;1591563;30;156658;-82
2021/08/22 00:04:45;;;;;;;;;;;;;;;21.93;82.06;101244.66;1591802;38;155831;-82
2021/08/22 00:06:22;;;;;;;;;;;;;;;21.92;82.44;101245.75;1594466;38;153960;-80
2021/08/22 00:07:54;;;;;;;;;;;;;;;21.93;82.06;101242.66;1590137;38;152904;-82
2021/08/22 00:09:26;;;;;;;;;;;;;;;21.92;81.98;101243.78;1593050;30;154251;-81
2021/08/22 00:10:58;;;;;;;;;;;;;;;21.93;82.37;101250.28;1593317;38;153912;-83
2021/08/22 00:12:30;;;;;;;;;;;;;;;21.93;82.77;101241.84;1598202;38;152644;-82
2021/08/22 00:14:02;;;;;;;;;;;;;;;21.95;82.84;101243.19;1590144;38;156012;-81
2021/08/22 00:15:33;;;;;;;;;;;;;;;21.96;82.37;101244.84;1593526;38;152222;-82
2021/08/22 00:17:06;;;;;;;;;;;;;;;21.97;82.12;101240.06;1590781;38;153537;-82
2021/08/22 00:18:45;;;;;;;;;;;;;;;21.97;82.69;101245.69;1589273;38;152452;-80
2021/08/22 00:20:20;;;;;;;;;;;;;;;21.95;82.47;101247.97;1591932;38;152020;-82
2021/08/22 00:21:52;;;;;;;;;;;;;;;21.97;82.17;101254.13;1589963;38;152194;-84
2021/08/22 00:23:24;;;;;;;;;;;;;;;21.97;82.80;101254.97;1591992;30;153552;-82
2021/08/22 00:24:56;;;;;;;;;;;;;;;21.97;82.42;101256.94;1589279;38;152743;-81
2021/08/22 00:26:27;;;;;;;;;;;;;;;21.97;83.03;101245.69;1592850;38;152086;-82
2021/08/22 00:27:59;;;;;;;;;;;;;;;21.99;82.51;101247.03;1592387;30;152742;-81
2021/08/22 00:29:31;;;;;;;;;;;;;;;21.98;82.80;101242.56;1592158;38;152165;-82
2021/08/22 00:31:04;;;;;;;;;;;;;;;21.99;82.93;101247.03;1591844;38;154315;-83
2021/08/22 00:32:36;;;;;;;;;;;;;;;22.00;83.14;101248.72;1591010;38;152268;-82
2021/08/22 00:34:08;;;;;;;;;;;;;;;22.02;82.70;101251.22;1595033;38;152633;-81
2021/08/22 00:35:40;;;;;;;;;;;;;;;22.02;82.98;101254.03;1592244;38;153376;-81
2021/08/22 00:37:12;;;;;;;;;;;;;;;22.02;82.88;101254.88;1592505;30;153568;-81
2021/08/22 00:38:45;;;;;;;;;;;;;;;22.02;83.25;101248.41;1593368;38;151962;-81
2021/08/22 00:40:17;;;;;;;;;;;;;;;22.03;83.04;101250.09;1589241;38;153919;-82
2021/08/22 00:41:49;;;;;;;;;;;;;;;22.03;82.85;101247.25;1592517;38;153670;-83
2021/08/22 00:43:20;;;;;;;;;;;;;;;22.05;82.93;101239.34;1592882;38;155089;-82
2021/08/22 00:44:52;;;;;;;;;;;;;;;22.05;82.68;101242.16;1594035;30;153252;-81
2021/08/22 00:46:26;;;;;;;;;;;;;;;22.04;82.94;101251.72;1592328;38;152417;-82
2021/08/22 00:47:58;;;;;;;;;;;;;;;22.03;83.02;101241.63;1590183;38;152835;-83
2021/08/22 00:49:29;;;;;;;;;;;;;;;22.03;82.70;101247.25;1591471;38;153921;-83
2021/08/22 00:51:01;;;;;;;;;;;;;;;22.05;83.09;101244.97;1592597;38;153067;-83
2021/08/22 00:52:33;;;;;;;;;;;;;;;22.04;83.19;101240.47;1590554;38;153619;-82
2021/08/22 00:54:05;;;;;;;;;;;;;;;22.06;83.27;101239.03;1592957;30;152261;-81
2021/08/22 00:55:37;;;;;;;;;;;;;;;22.06;83.13;101235.38;1595255;38;152507;-83
2021/08/22 00:57:11;;;;;;;;;;;;;;;22.04;83.40;101241.31;1590596;38;152755;-81
2021/08/22 00:58:43;;;;;;;;;;;;;;;22.06;83.01;101241.00;1593073;30;156272;-81
2021/08/22 01:00:16;;;;;;;;;;;;;;;22.05;82.94;101242.97;1592159;38;152927;-84
2021/08/22 01:01:50;;;;;;;;;;;;;;;22.05;83.16;101245.78;1592640;38;154250;-80
2021/08/22 01:03:29;;;;;;;;;;;;;;;22.06;83.03;101250.28;1593433;38;155786;-81
2021/08/22 01:05:08;;;;;;;;;;;;;;;22.07;83.55;101243.53;1591945;38;154239;-82
2021/08/22 01:06:56;;;;;;;;;;;;;;;22.05;82.90;101242.97;1592695;38;153661;-84
2021/08/22 01:08:37;;;;;;;;;;;;;;;22.04;83.27;101246.94;1589877;38;156659;-81
2021/08/22 01:10:10;;;;;;;;;;;;;;;22.04;83.25;101244.13;1592758;38;153579;-81
2021/08/22 01:11:44;;;;;;;;;;;;;;;22.04;83.01;101241.31;1592364;30;152549;-82
2021/08/22 01:13:21;;;;;;;;;;;;;;;22.05;83.38;101239.34;1589170;38;153246;-82
2021/08/22 01:14:58;;;;;;;;;;;;;;;22.05;83.83;101247.78;1593904;38;152765;-84
2021/08/22 01:16:32;;;;;;;;;;;;;;;22.06;83.70;101243.81;1591015;38;154218;-82
2021/08/22 01:18:06;;;;;;;;;;;;;;;22.07;83.60;101242.69;1594900;38;154351;-81
2021/08/22 01:19:38;;;;;;;;;;;;;;;22.07;83.45;101243.53;1594374;38;152017;-83
2021/08/22 01:21:13;;;;;;;;;;;;;;;22.14;83.62;101251.53;1591332;38;152317;-82
2021/08/22 01:22:46;;;;;;;;;;;;;;;22.10;83.50;101240.06;1597318;38;151862;-83
2021/08/22 01:24:19;;;;;;;;;;;;;;;22.09;83.27;101240.38;1591345;30;152785;-83
2021/08/22 01:25:52;;;;;;;;;;;;;;;22.09;83.15;101246.84;1590010;38;152754;-81
2021/08/22 01:27:24;;;;;;;;;;;;;;;22.09;82.86;101248.81;1590284;38;152966;-83
2021/08/22 01:28:58;;;;;;;;;;;;;;;22.08;83.04;101247.13;1592161;30;152843;-83
2021/08/22 01:30:32;;;;;;;;;;;;;;;22.10;83.25;101244.84;1593498;38;151886;-82
2021/08/22 01:32:05;;;;;;;;;;;;;;;22.08;83.35;101247.13;1590824;38;152316;-81
2021/08/22 01:33:37;;;;;;;;;;;;;;;22.08;82.96;101252.75;1592301;38;154272;-81
2021/08/22 01:35:11;;;;;;;;;;;;;;;22.10;83.15;101244.84;1593771;38;152053;-83
2021/08/22 01:36:43;;;;;;;;;;;;;;;22.09;83.54;101246.00;1593263;38;152413;-83
2021/08/22 01:38:16;;;;;;;;;;;;;;;22.08;83.38;101250.78;1592160;38;152352;-83
2021/08/22 01:39:49;;;;;;;;;;;;;;;22.11;83.38;101250.19;1595982;30;152151;-82
2021/08/22 01:41:23;;;;;;;;;;;;;;;22.08;83.06;101245.16;1595651;38;152079;-82
2021/08/22 01:42:55;;;;;;;;;;;;;;;22.10;83.23;101247.69;1591811;38;154038;-81
2021/08/22 01:44:28;;;;;;;;;;;;;;;22.08;83.11;101244.31;1594234;38;155499;-80
2021/08/22 01:46:00;;;;;;;;;;;;;;;22.08;83.37;101245.16;1590193;30;152550;-81
2021/08/22 01:47:33;;;;;;;;;;;;;;;22.11;83.41;101246.53;1590305;38;156003;-82
2021/08/22 01:49:07;;;;;;;;;;;;;;;22.10;83.44;101245.69;1589699;38;153219;-80
2021/08/22 01:50:39;;;;;;;;;;;;;;;22.10;83.80;101254.13;1591926;38;153311;-82
2021/08/22 01:52:12;;;;;;;;;;;;;;;22.13;83.76;101235.78;1590693;38;152483;-82
2021/08/22 01:53:44;;;;;;;;;;;;;;;22.11;83.37;101243.72;1590777;38;154335;-81
2021/08/22 01:55:16;;;;;;;;;;;;;;;22.09;83.77;101246.00;1590940;38;152371;-81
2021/08/22 01:56:47;;;;;;;;;;;;;;;22.11;83.69;101246.53;1590620;38;155280;-82
2021/08/22 01:58:21;;;;;;;;;;;;;;;22.13;83.55;101252.66;1593052;30;152595;-83
2021/08/22 01:59:52;;;;;;;;;;;;;;;22.10;83.49;101251.31;1589801;38;153502;-83
2021/08/22 02:01:24;;;;;;;;;;;;;;;22.11;84.05;101254.97;1591251;38;152357;-82
2021/08/22 02:03:00;;;;;;;;;;;;;;;22.12;83.42;101251.03;1593658;38;154495;-80
2021/08/22 02:04:42;;;;;;;;;;;;;;;22.12;83.30;101251.03;1591717;38;153585;-80
2021/08/22 02:06:18;;;;;;;;;;;;;;;22.10;83.43;101248.50;1592058;38;153623;-82
2021/08/22 02:07:50;;;;;;;;;;;;;;;22.09;84.09;101251.63;1590000;38;154374;-83
2021/08/22 02:09:31;;;;;;;;;;;;;;;22.10;83.75;101247.69;1589500;38;153031;-81
2021/08/22 02:11:07;;;;;;;;;;;;;;;22.10;83.79;101250.50;1592371;30;154750;-82
2021/08/22 02:12:39;;;;;;;;;;;;;;;22.09;84.08;101246.84;1589451;38;155508;-82
2021/08/22 02:14:13;;;;;;;;;;;;;;;22.09;84.15;101243.19;1590364;30;155207;-82
2021/08/22 02:15:46;;;;;;;;;;;;;;;22.09;83.46;101246.00;1592038;38;155402;-83
2021/08/22 02:17:21;;;;;;;;;;;;;;;22.08;83.66;101247.13;1591782;30;152500;-82
2021/08/22 02:18:53;;;;;;;;;;;;;;;22.08;84.15;101247.97;1592414;38;154244;-83
2021/08/22 02:20:26;;;;;;;;;;;;;;;22.10;84.11;101253.31;1590118;30;156322;-83
2021/08/22 02:21:59;;;;;;;;;;;;;;;22.09;83.69;101248.81;1589222;38;154001;-82
2021/08/22 02:23:31;;;;;;;;;;;;;;;22.12;84.12;101256.66;1595638;30;154702;-82
2021/08/22 02:25:03;;;;;;;;;;;;;;;22.10;83.81;101245.69;1595317;38;154003;-82
2021/08/22 02:26:35;;;;;;;;;;;;;;;22.11;84.21;101257.78;1590049;38;151962;-82
2021/08/22 02:28:07;;;;;;;;;;;;;;;22.12;84.00;101249.00;1590923;38;156230;-81
2021/08/22 02:29:49;;;;;;;;;;;;;;;22.10;84.06;101251.31;1590926;38;152237;-81
2021/08/22 02:31:21;;;;;;;;;;;;;;;22.10;84.21;101253.31;1591386;38;151722;-82
2021/08/22 02:32:53;;;;;;;;;;;;;;;22.11;84.45;101254.97;1591441;38;152388;-82
2021/08/22 02:34:25;;;;;;;;;;;;;;;22.11;84.28;101250.19;1592407;38;152484;-83
2021/08/22 02:35:57;;;;;;;;;;;;;;;22.11;84.33;101253.00;1589112;38;152284;-81
2021/08/22 02:37:29;;;;;;;;;;;;;;;22.13;84.51;101247.03;1591827;38;153185;-83
2021/08/22 02:39:00;;;;;;;;;;;;;;;22.14;84.63;101246.75;1591172;38;152227;-81
2021/08/22 02:40:32;;;;;;;;;;;;;;;22.14;84.58;101240.28;1591177;38;152684;-82
2021/08/22 02:42:04;;;;;;;;;;;;;;;22.13;84.23;101249.84;1590532;38;152406;-83
2021/08/22 02:43:37;;;;;;;;;;;;;;;22.11;84.13;101249.34;1591532;38;152382;-82
2021/08/22 02:45:09;;;;;;;;;;;;;;;22.10;84.80;101248.50;1589165;38;152538;-81
2021/08/22 02:46:40;;;;;;;;;;;;;;;22.11;84.25;101255.81;1592171;38;152214;-80
2021/08/22 02:48:13;;;;;;;;;;;;;;;22.10;84.32;101254.13;1591552;38;152769;-81
2021/08/22 02:49:44;;;;;;;;;;;;;;;22.15;84.89;101256.03;1591579;38;154638;-83
2021/08/22 02:51:16;;;;;;;;;;;;;;;22.16;84.92;101257.69;1592372;38;153806;-82
2021/08/22 02:52:48;;;;;;;;;;;;;;;22.15;84.31;101251.22;1591675;30;155887;-82
2021/08/22 02:54:20;;;;;;;;;;;;;;;22.15;84.63;101251.22;1590822;38;156321;-82
2021/08/22 02:55:52;;;;;;;;;;;;;;;22.14;84.53;101249.56;1594295;38;152982;-82
2021/08/22 02:57:24;;;;;;;;;;;;;;;22.14;84.51;101245.91;1592570;30;153086;-81
2021/08/22 02:58:56;;;;;;;;;;;;;;;22.15;84.39;101250.38;1591488;38;152152;-81
2021/08/22 03:00:27;;;;;;;;;;;;;;;22.15;84.89;101253.22;1591398;38;152458;-80
2021/08/22 03:01:59;;;;;;;;;;;;;;;22.14;84.66;101265.59;1592771;38;155328;-80
2021/08/22 03:03:31;;;;;;;;;;;;;;;22.14;84.77;101266.44;1589691;38;154448;-81
2021/08/22 03:05:04;;;;;;;;;;;;;;;22.16;84.96;101264.16;1592171;38;152730;-82
2021/08/22 03:06:36;;;;;;;;;;;;;;;22.14;84.12;101252.38;1591883;38;155530;-82
2021/08/22 03:08:07;;;;;;;;;;;;;;;22.14;84.39;101252.38;1596210;38;154906;-82
2021/08/22 03:09:39;;;;;;;;;;;;;;;22.15;84.21;101258.84;1590595;38;154311;-81
2021/08/22 03:11:11;;;;;;;;;;;;;;;22.14;84.91;101259.97;1592603;38;154231;-82
2021/08/22 03:12:42;;;;;;;;;;;;;;;22.13;85.08;101261.13;1591183;38;155684;-83
2021/08/22 03:14:14;;;;;;;;;;;;;;;22.16;85.24;101260.50;1591166;38;154738;-83
2021/08/22 03:15:46;;;;;;;;;;;;;;;22.14;84.36;101252.38;1589870;38;153664;-81
2021/08/22 03:17:18;;;;;;;;;;;;;;;22.17;84.92;101256.53;1589591;38;153828;-82
2021/08/22 03:18:50;;;;;;;;;;;;;;;22.16;84.71;101261.34;1592698;38;153678;-82
2021/08/22 03:20:22;;;;;;;;;;;;;;;22.16;84.93;101257.69;1593196;38;152902;-83
2021/08/22 03:21:54;;;;;;;;;;;;;;;22.15;84.84;101256.03;1592730;38;155992;-82
2021/08/22 03:23:26;;;;;;;;;;;;;;;22.15;84.69;101264.47;1588719;38;154450;-83
2021/08/22 03:24:57;;;;;;;;;;;;;;;22.15;84.80;101259.66;1593999;38;155648;-81
2021/08/22 03:26:29;;;;;;;;;;;;;;;22.17;84.84;101262.16;1593013;30;154418;-81
2021/08/22 03:28:01;;;;;;;;;;;;;;;22.16;84.54;101266.97;1591894;38;154419;-81
2021/08/22 03:29:32;;;;;;;;;;;;;;;22.14;84.70;101263.63;1590483;38;152647;-81
2021/08/22 03:31:04;;;;;;;;;;;;;;;22.14;84.95;101266.44;1591508;38;152800;-81
2021/08/22 03:32:36;;;;;;;;;;;;;;;22.14;84.63;101269.25;1590061;38;153290;-81
2021/08/22 03:34:08;;;;;;;;;;;;;;;22.13;84.67;101269.56;1591744;38;153902;-83
2021/08/22 03:35:39;;;;;;;;;;;;;;;22.14;84.47;101265.59;1590179;38;152811;-82
2021/08/22 03:37:11;;;;;;;;;;;;;;;22.15;84.92;101270.09;1593189;38;153187;-81
2021/08/22 03:38:43;;;;;;;;;;;;;;;22.14;84.87;101272.06;1589104;38;151831;-81
2021/08/22 03:40:15;;;;;;;;;;;;;;;22.13;85.13;101273.22;1592613;38;151912;-82
2021/08/22 03:41:47;;;;;;;;;;;;;;;22.14;85.17;101272.06;1590044;38;152420;-81
2021/08/22 03:43:19;;;;;;;;;;;;;;;22.16;85.21;101275.41;1591719;38;151982;-81
2021/08/22 03:44:51;;;;;;;;;;;;;;;22.18;85.39;101272.28;1590316;38;152545;-83
2021/08/22 03:46:22;;;;;;;;;;;;;;;22.20;84.74;101277.59;1590321;38;152285;-82
2021/08/22 03:47:54;;;;;;;;;;;;;;;22.18;84.94;101280.72;1590987;38;152402;-80
2021/08/22 03:49:26;;;;;;;;;;;;;;;22.19;85.11;101276.75;1589963;38;152649;-82
2021/08/22 03:50:58;;;;;;;;;;;;;;;22.20;85.06;101277.59;1592667;38;152569;-82
2021/08/22 03:52:30;;;;;;;;;;;;;;;22.21;84.69;101277.31;1592398;38;152283;-82
2021/08/22 03:54:02;;;;;;;;;;;;;;;22.22;85.03;101278.09;1588341;38;153753;-80
2021/08/22 03:55:33;;;;;;;;;;;;;;;22.23;84.36;101279.78;1592168;38;153312;-82
2021/08/22 03:57:05;;;;;;;;;;;;;;;22.24;84.81;101279.47;1588642;38;152363;-83
2021/08/22 03:58:37;;;;;;;;;;;;;;;22.24;84.93;101276.66;1591420;38;156009;-81
2021/08/22 04:00:09;;;;;;;;;;;;;;;22.25;84.91;101275.53;1588516;38;152973;-81
2021/08/22 04:01:42;;;;;;;;;;;;;;;22.23;84.75;101269.34;1591754;30;153854;-81
2021/08/22 04:03:14;;;;;;;;;;;;;;;22.20;85.04;101266.34;1591860;30;153532;-82
2021/08/22 04:04:46;;;;;;;;;;;;;;;22.21;84.96;101265.19;1591123;38;152559;-81
2021/08/22 04:06:18;;;;;;;;;;;;;;;22.21;84.75;101273.66;1589421;38;152432;-81
2021/08/22 04:07:53;;;;;;;;;;;;;;;22.22;84.83;101267.69;1592071;38;152866;-83
2021/08/22 04:09:25;;;;;;;;;;;;;;;22.21;84.47;101271.66;1591769;38;152917;-82
2021/08/22 04:10:57;;;;;;;;;;;;;;;22.21;84.88;101277.31;1593177;30;151972;-81
2021/08/22 04:12:29;;;;;;;;;;;;;;;22.20;84.86;101278.44;1592690;38;152846;-81
2021/08/22 04:14:02;;;;;;;;;;;;;;;22.21;84.73;101285.75;1596837;38;152353;-83
2021/08/22 04:15:34;;;;;;;;;;;;;;;22.20;84.43;101275.63;1592986;38;152774;-81
2021/08/22 04:17:06;;;;;;;;;;;;;;;22.21;84.61;101268.84;1588771;38;153451;-81
2021/08/22 04:18:37;;;;;;;;;;;;;;;22.21;84.75;101274.50;1591957;38;154548;-81
2021/08/22 04:20:09;;;;;;;;;;;;;;;22.21;84.64;101274.50;1590787;30;153948;-82
2021/08/22 04:21:41;;;;;;;;;;;;;;;22.22;84.56;101280.91;1592293;30;154334;-81
2021/08/22 04:23:13;;;;;;;;;;;;;;;22.21;84.41;101277.31;1593090;38;154708;-83
2021/08/22 04:24:45;;;;;;;;;;;;;;;22.23;83.95;101282.59;1593251;30;153358;-82
2021/08/22 04:26:17;;;;;;;;;;;;;;;22.23;84.49;101288.22;1592765;38;155468;-81
2021/08/22 04:27:49;;;;;;;;;;;;;;;22.21;83.86;101280.13;1592030;38;154061;-82
2021/08/22 04:29:20;;;;;;;;;;;;;;;22.25;83.84;101280.31;1593391;38;153877;-82
2021/08/22 04:30:52;;;;;;;;;;;;;;;22.24;83.71;101290.75;1590086;38;153361;-82
2021/08/22 04:32:24;;;;;;;;;;;;;;;22.26;83.68;101290.44;1592597;38;153479;-82
2021/08/22 04:33:56;;;;;;;;;;;;;;;22.27;83.86;101284.47;1592517;38;155711;-82
2021/08/22 04:35:28;;;;;;;;;;;;;;;22.26;83.55;101293.25;1593495;38;153711;-82
2021/08/22 04:37:00;;;;;;;;;;;;;;;22.25;83.84;101295.22;1590997;38;152572;-81
2021/08/22 04:38:35;;;;;;;;;;;;;;;22.24;83.91;101296.38;1594113;38;151825;-82
2021/08/22 04:40:07;;;;;;;;;;;;;;;22.24;83.73;101296.38;1590984;38;152686;-81
2021/08/22 04:41:42;;;;;;;;;;;;;;;22.24;83.98;101295.53;1592299;38;152095;-80
2021/08/22 04:43:14;;;;;;;;;;;;;;;22.25;83.44;101288.75;1592492;30;152307;-81
2021/08/22 04:44:46;;;;;;;;;;;;;;;22.27;84.02;101289.25;1588737;38;152439;-81
2021/08/22 04:46:19;;;;;;;;;;;;;;;22.26;83.31;101290.44;1591875;38;151963;-80
2021/08/22 04:47:51;;;;;;;;;;;;;;;22.23;83.92;101288.22;1593359;38;152210;-82
2021/08/22 04:49:23;;;;;;;;;;;;;;;22.21;83.53;101291.38;1593633;38;152581;-83
2021/08/22 04:50:55;;;;;;;;;;;;;;;22.20;83.70;101284.06;1591099;38;152268;-81
2021/08/22 04:52:27;;;;;;;;;;;;;;;22.19;83.60;101285.22;1592891;38;152447;-82
2021/08/22 04:53:59;;;;;;;;;;;;;;;22.20;83.63;101297.31;1590547;38;152216;-82
2021/08/22 04:55:31;;;;;;;;;;;;;;;22.18;83.88;101298.44;1593587;30;152043;-82
2021/08/22 04:57:03;;;;;;;;;;;;;;;22.21;83.89;101294.19;1591471;38;152808;-80
2021/08/22 04:58:37;;;;;;;;;;;;;;;22.21;83.42;101297.00;1593974;38;151777;-82
2021/08/22 05:00:10;;;;;;;;;;;;;;;22.21;83.43;101290.53;1591547;38;153468;-83
2021/08/22 05:01:42;;;;;;;;;;;;;;;22.21;84.07;101301.78;1592708;38;152820;-83
2021/08/22 05:03:14;;;;;;;;;;;;;;;22.19;83.55;101302.09;1594498;38;153634;-82
2021/08/22 05:04:47;;;;;;;;;;;;;;;22.21;83.63;101307.44;1592889;38;152379;-83
2021/08/22 05:06:19;;;;;;;;;;;;;;;22.20;83.84;101312.22;1592818;38;153231;-82
2021/08/22 05:07:54;;;;;;;;;;;;;;;22.18;83.54;101312.50;1590987;38;153259;-83
2021/08/22 05:09:26;;;;;;;;;;;;;;;22.17;83.86;101316.47;1593232;38;152817;-82
2021/08/22 05:10:58;;;;;;;;;;;;;;;22.20;83.54;101326.28;1596187;38;152022;-83
2021/08/22 05:12:30;;;;;;;;;;;;;;;22.17;83.69;101326.88;1596215;30;154565;-82
2021/08/22 05:14:02;;;;;;;;;;;;;;;22.18;83.47;101323.78;1593398;38;155180;-83
2021/08/22 05:15:34;;;;;;;;;;;;;;;22.17;83.71;101327.72;1595098;30;152718;-81
2021/08/22 05:17:06;;;;;;;;;;;;;;;22.17;83.81;101333.34;1590720;38;153081;-81
2021/08/22 05:18:38;;;;;;;;;;;;;;;22.18;83.42;101337.00;1594833;38;152757;-83
2021/08/22 05:20:10;;;;;;;;;;;;;;;22.18;83.61;101339.81;1593618;38;152992;-82
2021/08/22 05:21:42;;;;;;;;;;;;;;;22.18;83.54;101337.00;1595421;30;153523;-82
2021/08/22 05:23:14;;;;;;;;;;;;;;;22.17;83.69;101340.97;1595369;38;153674;-82
2021/08/22 05:24:46;;;;;;;;;;;;;;;22.17;83.63;101341.81;1593852;30;152753;-83
2021/08/22 05:26:18;;;;;;;;;;;;;;;22.19;83.88;101349.94;1589184;38;154620;-83
2021/08/22 05:27:50;;;;;;;;;;;;;;;22.21;83.29;101349.66;1596572;30;153749;-83
2021/08/22 05:29:22;;;;;;;;;;;;;;;22.21;83.40;101360.91;1598139;38;153792;-81
2021/08/22 05:30:54;;;;;;;;;;;;;;;22.18;83.45;101366.00;1590793;30;153944;-82
2021/08/22 05:32:27;;;;;;;;;;;;;;;22.18;83.78;101373.59;1592034;38;155873;-82
2021/08/22 05:34:00;;;;;;;;;;;;;;;22.19;83.56;101372.47;1591937;38;153386;-81
2021/08/22 05:35:33;;;;;;;;;;;;;;;22.18;83.38;101379.22;1592527;38;152996;-82
2021/08/22 05:37:05;;;;;;;;;;;;;;;22.18;83.26;101380.06;1594280;30;154301;-81
2021/08/22 05:38:37;;;;;;;;;;;;;;;22.19;83.37;101378.09;1589670;38;156290;-82
2021/08/22 05:40:09;;;;;;;;;;;;;;;22.20;83.49;101381.75;1592394;38;153544;-81
2021/08/22 05:41:41;;;;;;;;;;;;;;;22.20;83.59;101370.47;1595798;30;153926;-81
2021/08/22 05:43:13;;;;;;;;;;;;;;;22.17;83.41;101381.22;1592092;38;152466;-81
2021/08/22 05:44:50;;;;;;;;;;;;;;;22.18;83.23;101382.88;1591212;38;152366;-82
2021/08/22 05:46:22;;;;;;;;;;;;;;;22.19;83.65;101392.16;1592145;38;152246;-81
2021/08/22 05:47:54;;;;;;;;;;;;;;;22.20;83.99;101393.00;1591121;38;153380;-81
2021/08/22 05:49:26;;;;;;;;;;;;;;;22.19;83.27;101389.34;1589960;38;152943;-81
2021/08/22 05:50:57;;;;;;;;;;;;;;;22.21;83.75;101395.53;1590840;38;152468;-81
2021/08/22 05:52:32;;;;;;;;;;;;;;;22.20;83.43;101402.28;1592673;38;152097;-82
2021/08/22 05:54:04;;;;;;;;;;;;;;;22.21;83.24;101394.69;1592247;38;152092;-82
2021/08/22 05:55:35;;;;;;;;;;;;;;;22.20;83.81;101393.00;1595790;38;152265;-83
2021/08/22 05:57:07;;;;;;;;;;;;;;;22.20;83.75;101399.47;1592953;30;152391;-82
2021/08/22 05:58:42;;;;;;;;;;;;;;;22.20;83.43;101398.63;1591649;30;152336;-82
2021/08/22 06:00:14;;;;;;;;;;;;;;;22.18;83.43;101396.13;1591096;38;152217;-81
2021/08/22 06:01:46;;;;;;;;;;;;;;;22.21;83.58;101394.69;1591639;38;152268;-81
2021/08/22 06:03:18;;;;;;;;;;;;;;;22.22;83.25;101396.31;1594170;30;152242;-81
2021/08/22 06:04:50;;;;;;;;;;;;;;;22.21;83.85;101414.38;1593575;38;152100;-81
2021/08/22 06:06:22;;;;;;;;;;;;;;;22.21;83.53;101405.94;1592162;38;153225;-81
2021/08/22 06:07:53;;;;;;;;;;;;;;;22.19;83.35;101409.06;1592110;38;154496;-80
2021/08/22 06:09:28;;;;;;;;;;;;;;;22.21;83.82;101406.78;1593778;38;152407;-82
2021/08/22 06:10:59;;;;;;;;;;;;;;;22.22;83.81;101413.22;1590658;30;152490;-82
2021/08/22 06:12:31;;;;;;;;;;;;;;;22.20;83.93;101416.34;1590431;38;152543;-82
2021/08/22 06:14:06;;;;;;;;;;;;;;;22.19;83.37;101411.88;1593347;38;153640;-83
2021/08/22 06:15:38;;;;;;;;;;;;;;;22.20;83.69;101418.34;1595741;30;152834;-81
2021/08/22 06:17:12;;;;;;;;;;;;;;;22.20;83.29;101418.34;1592907;38;154476;-81
2021/08/22 06:18:44;;;;;;;;;;;;;;;22.21;83.43;101422.84;1591450;30;152797;-80
2021/08/22 06:20:16;;;;;;;;;;;;;;;22.20;83.54;101424.81;1593955;38;153378;-82
2021/08/22 06:21:48;;;;;;;;;;;;;;;22.18;83.53;101425.09;1592338;38;152599;-81
2021/08/22 06:23:20;;;;;;;;;;;;;;;22.21;83.80;101426.47;1591416;30;153295;-84
2021/08/22 06:24:52;;;;;;;;;;;;;;;22.19;83.55;101431.56;1595921;38;155757;-81
2021/08/22 06:26:25;;;;;;;;;;;;;;;22.20;83.49;101440.84;1592195;38;153619;-81
2021/08/22 06:28:00;;;;;;;;;;;;;;;22.20;83.63;101432.41;1592951;38;155251;-82
2021/08/22 06:29:32;;;;;;;;;;;;;;;22.20;83.38;101430.44;1591366;38;154010;-82
2021/08/22 06:31:03;;;;;;;;;;;;;;;22.20;83.31;101436.06;1594012;38;153395;-82
2021/08/22 06:32:35;;;;;;;;;;;;;;;22.20;83.35;101436.06;1590372;38;153412;-81
2021/08/22 06:34:09;;;;;;;;;;;;;;;22.21;83.03;101440.56;1591539;38;154379;-83
2021/08/22 06:35:41;;;;;;;;;;;;;;;22.20;83.24;101447.31;1594656;30;152926;-82
2021/08/22 06:37:13;;;;;;;;;;;;;;;22.20;82.88;101443.66;1590287;38;154337;-82
2021/08/22 06:38:44;;;;;;;;;;;;;;;22.21;83.76;101437.75;1592123;38;154012;-81
2021/08/22 06:40:16;;;;;;;;;;;;;;;22.21;83.37;101446.19;1591435;30;152855;-83
2021/08/22 06:41:48;;;;;;;;;;;;;;;22.22;82.84;101449.81;1592090;38;155020;-81
2021/08/22 06:43:20;;;;;;;;;;;;;;;22.20;83.23;101441.69;1589676;38;153887;-81
2021/08/22 06:44:52;;;;;;;;;;;;;;;22.21;83.11;101436.91;1589944;38;153543;-81
2021/08/22 06:46:24;;;;;;;;;;;;;;;22.18;83.22;101436.34;1592403;30;152910;-81
2021/08/22 06:47:56;;;;;;;;;;;;;;;22.18;83.15;101441.16;1592404;38;153698;-82
2021/08/22 06:49:28;;;;;;;;;;;;;;;22.18;83.32;101449.59;1591492;38;152733;-80
2021/08/22 06:51:01;;;;;;;;;;;;;;;22.18;82.98;101441.16;1593120;38;152422;-82
2021/08/22 06:52:32;;;;;;;;;;;;;;;22.17;83.61;101447.91;1594542;30;152493;-81
2021/08/22 06:54:04;;;;;;;;;;;;;;;22.17;82.98;101434.69;1593150;38;152154;-84
2021/08/22 06:55:36;;;;;;;;;;;;;;;22.17;83.30;101447.91;1594642;38;151703;-82
2021/08/22 06:57:08;;;;;;;;;;;;;;;22.17;83.21;101448.75;1596774;38;152166;-81
2021/08/22 06:58:40;;;;;;;;;;;;;;;22.17;83.08;101443.13;1594947;30;152010;-83
2021/08/22 07:00:12;;;;;;;;;;;;;;;22.19;82.95;101442.84;1596223;38;152155;-83
2021/08/22 07:01:44;;;;;;;;;;;;;;;22.18;82.67;101449.59;1594966;38;152373;-82
2021/08/22 07:03:16;;;;;;;;;;;;;;;22.17;82.98;101448.75;1594171;38;151674;-82
2021/08/22 07:04:48;;;;;;;;;;;;;;;22.17;83.14;101454.38;1595035;38;152180;-81
2021/08/22 07:06:20;;;;;;;;;;;;;;;22.17;82.93;101453.53;1592013;38;152090;-81
2021/08/22 07:07:52;;;;;;;;;;;;;;;22.20;82.66;101455.78;1589962;38;152570;-82
2021/08/22 07:09:25;;;;;;;;;;;;;;;22.18;82.66;101450.44;1594143;38;151985;-83
2021/08/22 07:10:57;;;;;;;;;;;;;;;22.20;82.27;101458.59;1591293;38;153128;-82
2021/08/22 07:12:28;;;;;;;;;;;;;;;22.23;82.68;101457.13;1593782;38;155794;-82
2021/08/22 07:14:00;;;;;;;;;;;;;;;22.20;82.52;101460.56;1591369;38;152589;-82
2021/08/22 07:15:35;;;;;;;;;;;;;;;22.20;82.58;101463.38;1590237;38;152378;-83
2021/08/22 07:17:08;;;;;;;;;;;;;;;22.20;82.78;101464.22;1596416;30;155778;-83
2021/08/22 07:18:41;;;;;;;;;;;;;;;22.20;82.26;101463.38;1594804;38;152112;-83
2021/08/22 07:20:13;;;;;;;;;;;;;;;22.20;82.35;101466.19;1593420;38;152472;-82
2021/08/22 07:21:44;;;;;;;;;;;;;;;22.22;82.39;101461.91;1594007;38;152194;-81
2021/08/22 07:23:16;;;;;;;;;;;;;;;22.20;82.58;101464.22;1592001;38;153393;-80
2021/08/22 07:24:48;;;;;;;;;;;;;;;22.18;82.43;101472.94;1594166;30;153454;-83
2021/08/22 07:26:20;;;;;;;;;;;;;;;22.17;82.54;101470.44;1591818;38;152150;-79
2021/08/22 07:27:51;;;;;;;;;;;;;;;22.18;82.51;101474.94;1597365;30;153336;-81
2021/08/22 07:29:23;;;;;;;;;;;;;;;22.17;82.55;101479.72;1592918;30;153772;-81
2021/08/22 07:30:55;;;;;;;;;;;;;;;22.19;82.60;101479.41;1598822;30;155538;-81
2021/08/22 07:32:27;;;;;;;;;;;;;;;22.18;82.02;101487.03;1593094;38;155505;-82
2021/08/22 07:33:59;;;;;;;;;;;;;;;22.18;82.33;101483.38;1592238;38;155591;-82
2021/08/22 07:35:31;;;;;;;;;;;;;;;22.17;82.54;101481.69;1592306;38;154539;-83
2021/08/22 07:37:04;;;;;;;;;;;;;;;22.17;82.61;101476.91;1595791;38;152901;-83
2021/08/22 07:38:36;;;;;;;;;;;;;;;22.15;82.89;101476.41;1593301;38;152911;-83
2021/08/22 07:40:08;;;;;;;;;;;;;;;22.16;82.55;101474.41;1590790;38;152350;-83
2021/08/22 07:41:40;;;;;;;;;;;;;;;22.16;82.32;101485.69;1591940;38;154560;-82
2021/08/22 07:43:12;;;;;;;;;;;;;;;22.16;82.78;101489.34;1590411;38;153005;-83
2021/08/22 07:44:45;;;;;;;;;;;;;;;22.17;82.68;101492.94;1591168;38;155747;-81
2021/08/22 07:46:17;;;;;;;;;;;;;;;22.16;82.25;101494.97;1591510;38;152946;-81
2021/08/22 07:47:49;;;;;;;;;;;;;;;22.17;82.55;101501.41;1589440;38;153823;-81
2021/08/22 07:49:20;;;;;;;;;;;;;;;22.16;82.57;101506.22;1591724;38;154550;-84